Time,TemperatureF,DewpointF,PressureIn,WindDirection,WindDirectionDegrees,WindSpeedMPH,WindSpeedGustMPH,Humidity,HourlyPrecipIn,Conditions,Clouds,dailyrainin,SoftwareType,DateUTC
2013-06-14 09:10:00,53.3,50.7,29.70,South,190,1.0,1.0,91,0.00,,,0.79,Wunderground v.1.15,2013-06-14 13:10:00,
2013-06-14 09:15:00,53.4,50.8,29.70,South,190,0.0,1.0,91,0.00,,,0.79,Wunderground v.1.15,2013-06-14 13:15:00,
2013-06-14 09:20:00,53.6,51.0,29.70,South,190,0.0,0.0,91,0.00,,,0.80,Wunderground v.1.15,2013-06-14 13:20:00,
2013-06-14 09:30:00,54.3,51.7,29.70,South,190,0.0,3.0,91,0.00,,,0.80,Wunderground v.1.15,2013-06-14 13:30:00,
2013-06-14 09:35:00,54.7,52.1,29.70,South,190,0.0,3.0,91,0.00,,,0.80,Wunderground v.1.15,2013-06-14 13:35:00,
2013-06-14 09:45:00,55.5,52.9,29.70,South,190,0.0,1.0,91,0.00,,,0.80,Wunderground v.1.15,2013-06-14 13:45:00,
2013-06-14 09:55:00,55.8,53.2,29.70,South,190,0.0,2.0,91,0.00,,,0.80,Wunderground v.1.15,2013-06-14 13:55:00,
2013-06-14 10:05:00,56.2,53.3,29.69,South,190,1.0,1.0,90,0.00,,,0.80,Wunderground v.1.15,2013-06-14 14:05:00,
2013-06-14 10:10:00,56.3,53.4,29.69,South,190,1.0,1.0,90,0.00,,,0.80,Wunderground v.1.15,2013-06-14 14:10:00,
2013-06-14 10:20:00,57.1,54.5,29.70,South,188,0.0,1.0,91,0.00,,,0.80,Wunderground v.1.15,2013-06-14 14:20:00,
2013-06-14 10:30:00,57.9,55.0,29.70,South,188,1.0,1.0,90,0.00,,,0.80,Wunderground v.1.15,2013-06-14 14:30:00,
2013-06-14 10:35:00,58.3,55.4,29.70,SSW,196,1.0,1.0,90,0.00,,,0.80,Wunderground v.1.15,2013-06-14 14:35:00,
2013-06-14 10:45:00,59.1,55.5,29.70,SSW,193,1.0,2.0,88,0.00,,,0.80,Wunderground v.1.15,2013-06-14 14:45:00,
2013-06-14 10:55:00,60.0,56.1,29.71,SSW,193,0.0,1.0,87,0.00,,,0.80,Wunderground v.1.15,2013-06-14 14:55:00,
2013-06-14 11:05:00,60.5,56.3,29.71,SSW,193,0.0,0.0,86,0.00,,,0.80,Wunderground v.1.15,2013-06-14 15:05:00,
2013-06-14 11:10:00,60.7,56.2,29.71,SSW,193,0.0,0.0,85,0.00,,,0.80,Wunderground v.1.15,2013-06-14 15:10:00,
2013-06-14 11:20:00,60.9,55.7,29.71,SSW,193,0.0,0.0,83,0.00,,,0.80,Wunderground v.1.15,2013-06-14 15:20:00,
2013-06-14 11:30:00,61.1,54.9,29.72,SSW,193,1.0,1.0,80,0.00,,,0.80,Wunderground v.1.15,2013-06-14 15:30:00,
2013-06-14 11:35:00,60.9,55.0,29.72,SSW,193,1.0,1.0,81,0.00,,,0.80,Wunderground v.1.15,2013-06-14 15:35:00,
2013-06-14 11:45:00,60.8,54.9,29.73,SSW,193,0.0,0.0,81,0.00,,,0.80,Wunderground v.1.15,2013-06-14 15:45:00,
2013-06-14 11:55:00,60.8,54.9,29.73,SSW,193,0.0,0.0,81,0.00,,,0.80,Wunderground v.1.15,2013-06-14 15:55:00,
2013-06-14 12:00:00,60.7,54.5,29.73,SSW,193,0.0,0.0,80,0.00,,,0.80,Wunderground v.1.15,2013-06-14 16:00:00,
2013-06-14 15:45:00,70.7,56.1,29.70,WNW,285,1.0,1.0,60,0.00,,,0.80,Wunderground v.1.15,2013-06-14 19:45:00,